Airfield :
LOGIN :

Register | Disclaimer

   EN    FR    IT 

 










Legend :    VFR   Marginal VFR   IFR   Intensive IFR   Very Intensive IFR
Visi :
Ceiling :
>= 8 km
>= 3000ft
5 to 8 km
1000 to 3000 ft
1500m to 5 km
500 to 1000 ft
800 to 1500m
200 to 500 ft
< 800m
< 200 ft
Symbols :   Thunderstorms  Fog  Heavy snow  Heavy precipitations  Wind > 20 kt
SIGMETs :     Misc.  Thunderstorms  Icing  Turbulence  Mountain Waves  Volcanic Ashes






- Airport Elevation : 461 ft
- IATA code : WIE


ETOU - Wiesbaden Army

CURRENT METAR :
  • 252356Z AUTO 00000KT 9999 CLR 16/15 A2985 RMK AO2 SLP106 T01630150 10208 20158 58002 $

EXPIRED METARs :
  • 252256Z AUTO 00000KT 9999 CLR 17/15 A2985 RMK AO2 SLP106 T01670150 402700150

TAF AMD TAF ETOU
Valid from the 25 at 17:00 until the 26 at 20:00 UTC


251721Z 2517/2620 21009KT 9999 SCT050 BKN100 QNH2979INS
TEMPO 2517/2518 22012G20KT 8000 -TSRA BKN030CB BKN045 OVC100
BECMG 2600/2601 VRB06KT 8000 BR FEW020 SCT040 BKN060 QNH2984INS
TEMPO 2609/2616 22010G15KT -SHRA SCT020 BKN030
BECMG 2615/2616 23009KT 9999 NSW SCT040 BKN080 QNH2984INS TX26/2614Z TN16/2603Z LAST NO AMDS AFT 2517 NEXT 2604



MET'MAP, your aeronautical weather chart ! - Copyright ORBIFLY December 2007 - Disclaimer

ORBIFLY MET'MAP TEAM :

Programming & Development : Alexandra Zaïnal
Concept & original design : Baudouin d'Aumeries
Assistance for programming : Marc-Olivier Méhu
Technical & hardware support : Manuel Goepfert

Contact : metmap@orbifly.com




SOURCES & CREDITS :

   NOAA